Terminal Aerodrome Forecast
Issued by NWS Dallas/Fort Worth, TX

Home | Current Version | Previous Version | Text Only | Print | Product List | Glossary On
Versions: 1 2 3 4 5 6 7 8 9 10 11 12 13 14 15 16 17 18 19 20 21 22 23 24 25 26 27 28
111
FTUS44 KFWD 141743
TAFDFW
TAF
KDFW 141743Z 1418/1524 18012KT P6SM BKN035
     FM150300 35007KT P6SM OVC020
     FM150900 34010KT P6SM OVC010
     FM151500 35015KT P6SM BKN030
     FM151800 14014KT P6SM SKC=

USA.gov is the U.S. government's official web portal to all federal, state and local government web resources and services.